Upstream stations:
Downstream station:
SHEF ID: MARK1 COTTONWOOD R AT MARION, KS
STATION TYPE:
Regulating: Stage = 16.00, Flow = 4479
PRECIP STAGE RIV-FLOW BAT-LOAD
in ft cfs volt
Ccp-Rev Ccp-Rev Ccp-Rev Ccp-Rev
(US/Central)
09/05 00:00 0.00 11.23 2382 12.60
09/05 01:00 0.00 10.56 2135 12.60
09/05 02:00 0.00 9.84 1882 12.60
09/05 03:00 0.00 9.12 1643 12.60
09/05 04:00 0.00 8.39 1416 12.54
09/05 05:00 0.00 7.81 1246 12.54
09/05 06:00 0.01 7.41 885 12.48
09/05 07:00 0.00 7.08 534 12.48
09/05 08:00 0.00 6.84 364 12.48
09/05 09:00 0.00 6.61 249 12.95
09/05 10:00 0.00 6.47 196 13.42
09/05 11:00 0.00 6.36 162 13.53
09/05 12:00 0.00 6.25 134 13.59
09/05 13:00 0.00 6.16 114 13.59
09/05 14:00 0.00 6.09 100 13.59
09/05 15:00 0.00 6.00 85 13.94
09/05 16:00 0.00 5.93 75 13.88
09/05 17:00 0.00 5.85 64 13.77
09/05 18:00 0.00 5.79 57 13.48
09/05 19:00 0.00 5.73 51 13.07
09/05 20:00 0.00 5.67 45 12.71
09/05 21:00 0.00 5.62 41 12.71
09/05 22:00 0.00 5.58 38 12.65
09/05 23:00 0.00 5.54 35 12.65